Time;durP1;ratioP1;P1;durP2;ratioP2;P2;SDS_P1;SDS_P2;PMS_P1;PMS_P2;Temp;Humidity;BMP_temperature;BMP_pressure;BME280_temperature;BME280_humidity;BME280_pressure;Samples;Min_cycle;Max_cycle;Signal;HPM_P1;HPM_P2
2022/06/08 03:09:57;;;;;;;1.67;1.42;;;23.60;96.00;;;;;;6254579;27;84000;-66
2022/06/08 03:13:03;;;;;;;1.80;1.70;;;23.70;96.10;;;;;;6243552;27;84549;-66
2022/06/08 03:16:08;;;;;;;1.75;1.65;;;23.70;96.00;;;;;;6248313;27;83989;-66
2022/06/08 03:19:11;;;;;;;4.18;2.58;;;23.60;96.00;;;;;;6242106;27;84031;-66
2022/06/08 03:22:16;;;;;;;2.05;1.67;;;23.60;96.00;;;;;;6229560;28;82982;-66
2022/06/08 03:25:21;;;;;;;1.77;1.42;;;23.60;95.90;;;;;;6239017;27;84216;-65
2022/06/08 03:28:23;;;;;;;1.70;1.60;;;23.60;95.80;;;;;;6242680;27;84235;-66
2022/06/08 03:31:25;;;;;;;1.98;1.48;;;23.60;95.80;;;;;;6245344;27;82519;-66
2022/06/08 03:34:27;;;;;;;1.52;1.42;;;23.60;95.80;;;;;;6237498;27;83243;-65
2022/06/08 03:37:29;;;;;;;1.75;1.40;;;23.60;95.90;;;;;;6244616;27;84454;-66
2022/06/08 03:40:33;;;;;;;1.40;1.30;;;23.60;95.80;;;;;;6246173;27;85241;-65
2022/06/08 03:43:35;;;;;;;1.80;1.50;;;23.60;95.80;;;;;;6244685;27;84070;-66
2022/06/08 03:46:41;;;;;;;2.38;1.60;;;23.60;95.70;;;;;;6250959;27;82754;-66
2022/06/08 03:49:43;;;;;;;1.80;1.55;;;23.60;95.80;;;;;;6251854;27;84278;-66
2022/06/08 03:52:51;;;;;;;2.28;1.60;;;23.60;95.60;;;;;;6256064;27;82890;-66
2022/06/08 03:55:56;;;;;;;1.60;1.45;;;23.60;95.60;;;;;;6234516;27;84028;-66
2022/06/08 03:58:58;;;;;;;2.75;1.33;;;23.60;95.60;;;;;;6249671;27;84007;-66
2022/06/08 04:02:01;;;;;;;1.48;1.38;;;23.60;95.70;;;;;;6257195;27;83758;-66
2022/06/08 04:05:03;;;;;;;1.40;1.30;;;23.60;95.80;;;;;;6250377;27;84344;-66
2022/06/08 04:08:05;;;;;;;2.25;1.40;;;23.60;95.80;;;;;;6234135;27;84065;-66
2022/06/08 04:11:09;;;;;;;1.45;1.35;;;23.60;95.80;;;;;;6237462;27;84923;-66
2022/06/08 04:14:11;;;;;;;1.63;1.52;;;23.60;95.80;;;;;;6243570;27;83225;-66
2022/06/08 04:17:13;;;;;;;3.15;1.70;;;23.60;95.90;;;;;;6240631;27;84311;-66
2022/06/08 04:20:15;;;;;;;1.70;1.60;;;23.60;95.90;;;;;;6246363;27;83023;-66
2022/06/08 04:23:19;;;;;;;1.60;1.50;;;23.60;96.00;;;;;;6247616;27;84093;-66
2022/06/08 04:26:23;;;;;;;1.73;1.40;;;23.60;96.00;;;;;;6237896;27;84019;-66
2022/06/08 04:33:22;;;;;;;1.75;1.50;;;23.60;95.90;;;;;;6257892;27;81569;-66
2022/06/08 04:36:24;;;;;;;1.90;1.70;;;23.50;95.80;;;;;;6241189;27;85385;-66
2022/06/08 04:39:26;;;;;;;1.67;1.58;;;23.60;95.80;;;;;;6247272;27;82968;-66
2022/06/08 04:42:30;;;;;;;1.42;1.30;;;23.60;95.80;;;;;;6235234;27;85075;-66
2022/06/08 04:45:35;;;;;;;1.42;1.30;;;23.60;95.80;;;;;;6240833;28;84384;-65
2022/06/08 04:48:36;;;;;;;1.40;1.30;;;23.60;95.90;;;;;;6244219;27;84171;-66
2022/06/08 04:51:38;;;;;;;1.45;1.35;;;23.50;96.00;;;;;;6259114;27;84006;-66
2022/06/08 04:54:40;;;;;;;1.50;1.40;;;23.60;96.10;;;;;;6255823;27;82903;-66
2022/06/08 04:57:44;;;;;;;1.70;1.50;;;23.60;96.10;;;;;;6246219;27;84071;-66
2022/06/08 05:00:46;;;;;;;1.45;1.33;;;23.60;96.20;;;;;;6251835;27;82774;-66
2022/06/08 05:03:48;;;;;;;2.30;1.50;;;23.60;96.30;;;;;;6248892;27;83250;-66
2022/06/08 05:06:50;;;;;;;2.58;1.30;;;23.60;96.30;;;;;;6238898;27;82987;-66
2022/06/08 05:09:52;;;;;;;1.75;1.42;;;23.60;96.40;;;;;;6253878;27;83348;-66
2022/06/08 05:12:56;;;;;;;1.40;1.30;;;23.50;96.50;;;;;;6255273;27;85000;-66
2022/06/08 05:15:58;;;;;;;1.20;1.10;;;23.50;96.50;;;;;;6250767;27;84551;-65
2022/06/08 05:19:00;;;;;;;1.75;1.20;;;23.50;96.40;;;;;;6259207;27;84043;-66
2022/06/08 05:22:02;;;;;;;1.17;1.10;;;23.60;96.40;;;;;;6241662;27;84114;-65
2022/06/08 05:25:05;;;;;;;1.92;1.20;;;23.50;96.40;;;;;;6260815;27;84017;-66
2022/06/08 05:28:10;;;;;;;1.55;1.35;;;23.60;96.40;;;;;;6246148;27;83976;-65
2022/06/08 05:31:12;;;;;;;2.03;1.25;;;23.50;96.40;;;;;;6237359;27;84326;-66
2022/06/08 05:34:14;;;;;;;1.60;1.45;;;23.50;96.50;;;;;;6248448;27;83324;-66
2022/06/08 05:37:16;;;;;;;3.00;1.50;;;23.50;96.60;;;;;;6237634;27;84061;-66
2022/06/08 05:40:18;;;;;;;1.38;1.27;;;23.60;96.70;;;;;;6237730;27;83950;-66
2022/06/08 05:43:23;;;;;;;1.55;1.20;;;23.50;96.80;;;;;;6235293;27;84908;-66
2022/06/08 05:46:25;;;;;;;1.33;1.23;;;23.50;96.90;;;;;;6237826;27;84018;-66
2022/06/08 05:49:27;;;;;;;1.30;1.20;;;23.50;96.90;;;;;;6249916;27;83227;-66
2022/06/08 05:52:29;;;;;;;1.45;1.35;;;23.50;97.00;;;;;;6238578;27;84299;-66
2022/06/08 05:55:32;;;;;;;3.40;1.80;;;23.50;97.30;;;;;;6242524;27;84044;-67
2022/06/08 05:58:35;;;;;;;2.13;1.63;;;23.60;97.40;;;;;;6245064;28;82936;-66
2022/06/08 06:01:37;;;;;;;1.60;1.50;;;23.50;97.40;;;;;;6248100;28;84070;-66
2022/06/08 06:04:39;;;;;;;2.47;1.50;;;23.50;97.70;;;;;;6247603;27;82203;-66
2022/06/08 06:07:42;;;;;;;1.50;1.40;;;23.50;97.60;;;;;;6248883;27;83959;-66
2022/06/08 06:10:46;;;;;;;1.60;1.25;;;23.50;97.60;;;;;;6254975;28;84288;-66
2022/06/08 06:13:50;;;;;;;1.88;1.33;;;23.50;97.70;;;;;;6248924;28;85282;-66
2022/06/08 06:16:52;;;;;;;1.38;1.27;;;23.50;97.70;;;;;;6245045;28;84085;-66
2022/06/08 06:19:54;;;;;;;1.60;1.30;;;23.50;97.80;;;;;;6244415;27;82999;-66
2022/06/08 06:22:56;;;;;;;1.60;1.40;;;23.50;98.50;;;;;;6245172;28;84043;-66
2022/06/08 06:25:58;;;;;;;1.63;1.50;;;23.50;99.00;;;;;;6246354;27;84081;-67
2022/06/08 06:29:02;;;;;;;1.30;1.20;;;23.60;99.20;;;;;;6258594;27;83932;-65
2022/06/08 06:32:07;;;;;;;2.72;1.33;;;23.50;98.60;;;;;;6236437;27;83960;-66
2022/06/08 06:35:17;;;;;;;1.45;1.13;;;23.60;98.10;;;;;;6243176;28;82769;-65
2022/06/08 06:38:19;;;;;;;1.33;1.23;;;23.50;97.60;;;;;;6246475;27;84785;-65
2022/06/08 06:41:22;;;;;;;1.20;1.10;;;23.60;97.30;;;;;;6251893;28;83959;-65
2022/06/08 06:44:25;;;;;;;2.33;1.20;;;23.60;97.10;;;;;;6244554;27;84976;-65
2022/06/08 06:47:27;;;;;;;2.03;1.13;;;23.60;97.00;;;;;;6246546;28;84327;-65
2022/06/08 06:50:29;;;;;;;1.20;1.10;;;23.60;96.80;;;;;;6249905;27;83805;-65
2022/06/08 06:53:31;;;;;;;1.75;1.50;;;23.60;96.70;;;;;;6238991;28;84018;-65
2022/06/08 06:56:34;;;;;;;1.55;1.20;;;23.60;96.50;;;;;;6245314;27;83290;-65
2022/06/08 06:59:38;;;;;;;1.35;1.25;;;23.60;96.40;;;;;;6249998;27;82955;-66
2022/06/08 07:02:40;;;;;;;2.20;1.25;;;23.60;96.30;;;;;;6239864;27;82995;-65
2022/06/08 07:05:42;;;;;;;1.85;1.30;;;23.70;96.00;;;;;;6246375;27;83270;-65
2022/06/08 07:08:45;;;;;;;1.58;1.10;;;23.60;95.80;;;;;;6255747;27;82980;-65
2022/06/08 07:11:47;;;;;;;1.38;1.13;;;23.60;95.80;;;;;;6248175;27;84086;-66
2022/06/08 07:14:50;;;;;;;1.73;1.10;;;23.60;95.90;;;;;;6253595;27;85056;-65
2022/06/08 07:17:53;;;;;;;1.15;1.00;;;23.60;96.30;;;;;;6245677;27;84172;-65
2022/06/08 07:20:55;;;;;;;1.20;1.10;;;23.60;95.90;;;;;;6248782;27;83977;-66
2022/06/08 07:23:57;;;;;;;1.20;1.00;;;23.60;95.80;;;;;;6245900;27;84007;-65
2022/06/08 07:26:59;;;;;;;1.90;1.23;;;23.60;95.80;;;;;;6257645;27;84001;-65
2022/06/08 07:30:03;;;;;;;1.85;1.10;;;23.60;95.70;;;;;;6248807;27;83996;-66
2022/06/08 07:33:06;;;;;;;1.98;1.20;;;23.60;95.60;;;;;;6241088;27;84388;-65
2022/06/08 07:36:08;;;;;;;1.25;1.13;;;23.60;95.50;;;;;;6257345;27;83283;-65
2022/06/08 07:39:10;;;;;;;1.45;1.10;;;23.60;95.40;;;;;;6240695;27;84325;-65
2022/06/08 07:42:12;;;;;;;1.70;1.25;;;23.60;95.40;;;;;;6233629;27;84448;-66
2022/06/08 07:45:16;;;;;;;1.42;1.20;;;23.60;95.40;;;;;;6245068;27;84830;-65
2022/06/08 07:51:38;;;;;;;1.00;1.00;;;23.60;95.30;;;;;;6255548;27;82132;-66
2022/06/08 07:54:41;;;;;;;1.50;1.10;;;23.60;95.20;;;;;;6241229;27;84035;-65
2022/06/08 07:57:47;;;;;;;1.10;1.00;;;23.60;95.20;;;;;;6245423;27;84113;-66
2022/06/08 08:00:50;;;;;;;1.35;1.15;;;23.60;95.20;;;;;;6248956;28;82698;-66
2022/06/08 08:03:53;;;;;;;1.20;1.10;;;23.60;95.40;;;;;;6247308;27;84175;-65
2022/06/08 08:06:55;;;;;;;2.10;1.30;;;23.60;95.40;;;;;;6238319;27;83273;-66
2022/06/08 08:09:57;;;;;;;1.10;1.00;;;23.60;95.40;;;;;;6239345;28;84040;-66
2022/06/08 08:12:59;;;;;;;1.25;1.00;;;23.60;95.40;;;;;;6241175;27;82944;-66
2022/06/08 08:16:03;;;;;;;1.10;1.00;;;23.60;95.50;;;;;;6241310;27;84263;-66
2022/06/08 08:19:05;;;;;;;0.90;0.90;;;23.60;95.50;;;;;;6242453;28;84484;-67
2022/06/08 08:22:09;;;;;;;1.60;1.20;;;23.60;95.50;;;;;;6241673;27;84452;-66
2022/06/08 08:25:11;;;;;;;3.88;1.30;;;23.60;95.50;;;;;;6238792;28;82928;-66
2022/06/08 08:28:13;;;;;;;1.55;1.23;;;23.60;95.50;;;;;;6244790;28;84061;-65
2022/06/08 08:31:16;;;;;;;1.92;1.20;;;23.60;95.50;;;;;;6243857;27;83960;-65
2022/06/08 08:34:18;;;;;;;1.20;1.10;;;23.60;95.50;;;;;;6251035;28;83256;-65
2022/06/08 08:37:20;;;;;;;1.20;1.10;;;23.60;95.50;;;;;;6246258;27;83324;-65
2022/06/08 08:40:43;;;;;;;1.20;1.10;;;23.60;95.50;;;;;;6242851;28;84105;-65
2022/06/08 08:43:45;;;;;;;1.40;1.13;;;23.60;95.50;;;;;;6244969;27;84177;-65
2022/06/08 08:46:57;;;;;;;1.20;1.10;;;23.60;95.40;;;;;;6246870;28;84972;-66
2022/06/08 08:50:06;;;;;;;1.73;1.10;;;23.60;95.40;;;;;;6241844;27;83795;-65
2022/06/08 08:53:25;;;;;;;1.50;1.00;;;23.60;95.40;;;;;;6245681;27;84073;-65
2022/06/08 08:56:31;;;;;;;1.20;1.10;;;23.60;95.40;;;;;;6238977;27;83224;-65
2022/06/08 08:59:33;;;;;;;1.45;1.20;;;23.60;95.40;;;;;;6243134;27;83714;-65
2022/06/08 09:06:00;;;;;;;1.27;1.17;;;23.60;95.40;;;;;;6243176;28;82306;-65
2022/06/08 09:09:06;;;;;;;1.38;1.10;;;23.60;95.40;;;;;;6245699;28;82486;-65
2022/06/08 09:12:13;;;;;;;2.60;1.30;;;23.60;95.40;;;;;;6240874;27;84422;-66
2022/06/08 09:15:19;;;;;;;1.33;1.23;;;23.60;95.40;;;;;;6245538;27;84534;-65
2022/06/08 09:18:32;;;;;;;2.15;1.30;;;23.60;95.40;;;;;;6244015;27;85029;-66
2022/06/08 09:21:36;;;;;;;1.13;1.02;;;23.60;95.40;;;;;;6247544;27;84620;-66
2022/06/08 09:24:42;;;;;;;1.75;1.30;;;23.60;95.20;;;;;;6256339;27;84031;-66
2022/06/08 09:27:52;;;;;;;2.47;1.30;;;23.60;97.20;;;;;;6250443;27;84006;-67
2022/06/08 09:30:54;;;;;;;1.65;1.20;;;23.60;96.60;;;;;;6252468;27;83872;-67
2022/06/08 09:34:07;;;;;;;1.45;1.30;;;23.70;96.20;;;;;;6243903;27;82904;-67
2022/06/08 09:37:13;;;;;;;2.33;1.52;;;23.70;95.80;;;;;;6237469;27;82950;-66
2022/06/08 09:40:36;;;;;;;1.30;1.15;;;23.70;95.70;;;;;;6244745;27;83413;-66
2022/06/08 09:43:53;;;;;;;1.58;1.17;;;23.70;95.50;;;;;;6243101;27;84235;-66
2022/06/08 09:54:11;;;;;;;1.27;1.15;;;23.70;95.00;;;;;;6248046;27;82370;-66
2022/06/08 09:57:24;;;;;;;1.85;1.48;;;23.70;94.90;;;;;;6254524;27;84067;-66
2022/06/08 10:00:34;;;;;;;1.40;1.27;;;23.60;95.00;;;;;;6241027;27;84428;-66
2022/06/08 10:03:51;;;;;;;1.55;1.30;;;23.60;95.10;;;;;;6248837;27;84033;-66
2022/06/08 10:06:59;;;;;;;1.38;1.10;;;23.70;95.20;;;;;;6249945;27;83988;-66
2022/06/08 10:10:23;;;;;;;1.30;1.10;;;23.60;95.20;;;;;;6236394;27;85040;-66
2022/06/08 10:13:31;;;;;;;1.20;1.10;;;23.70;95.20;;;;;;6250288;27;82319;-66
2022/06/08 10:16:39;;;;;;;2.00;1.10;;;23.70;95.00;;;;;;6236764;27;83970;-66
2022/06/08 10:19:54;;;;;;;1.70;1.20;;;23.60;94.80;;;;;;6237102;27;84163;-66
2022/06/08 10:23:02;;;;;;;1.20;1.10;;;23.70;94.70;;;;;;6245589;27;85179;-66
2022/06/08 10:26:12;;;;;;;1.25;1.13;;;23.70;94.60;;;;;;6251854;27;84022;-66
2022/06/08 10:29:21;;;;;;;1.40;1.30;;;23.60;94.60;;;;;;6238887;27;84041;-66
2022/06/08 10:32:30;;;;;;;1.90;1.30;;;23.60;94.40;;;;;;6242762;28;84196;-67
2022/06/08 10:35:36;;;;;;;1.20;1.10;;;23.60;94.20;;;;;;6243739;28;83223;-66
2022/06/08 10:38:43;;;;;;;1.40;1.30;;;23.70;94.60;;;;;;6246276;27;84441;-66
2022/06/08 10:45:38;;;;;;;1.25;1.15;;;23.70;94.30;;;;;;6251362;28;81472;-66
2022/06/08 10:48:49;;;;;;;1.20;1.10;;;23.70;94.40;;;;;;6254687;28;84019;-66
2022/06/08 10:52:17;;;;;;;1.42;1.17;;;23.70;94.40;;;;;;6238918;28;84247;-66
2022/06/08 10:55:42;;;;;;;1.65;1.20;;;23.70;94.50;;;;;;6237911;27;84921;-66
2022/06/08 10:58:55;;;;;;;1.85;1.10;;;23.70;94.50;;;;;;6247568;28;84091;-66
2022/06/08 11:02:17;;;;;;;1.27;1.17;;;23.70;94.60;;;;;;6239194;28;84062;-66
2022/06/08 11:05:20;;;;;;;1.77;1.30;;;23.70;94.60;;;;;;6246905;28;84007;-66
2022/06/08 11:08:24;;;;;;;1.05;1.05;;;23.70;94.50;;;;;;6242244;27;83990;-66
2022/06/08 11:11:42;;;;;;;1.17;1.08;;;23.70;94.50;;;;;;6237921;28;84207;-67
2022/06/08 11:14:56;;;;;;;1.38;1.10;;;23.70;94.50;;;;;;6234934;28;84070;-65
2022/06/08 11:18:02;;;;;;;1.63;1.30;;;23.70;94.60;;;;;;6246281;27;83466;-67
2022/06/08 11:21:32;;;;;;;1.20;1.10;;;23.70;94.60;;;;;;6237373;28;83663;-66
2022/06/08 11:24:38;;;;;;;1.40;1.30;;;23.70;94.60;;;;;;6244139;28;83997;-66
2022/06/08 11:27:41;;;;;;;1.77;1.13;;;23.70;94.60;;;;;;6239413;27;85309;-66
2022/06/08 11:30:49;;;;;;;1.92;1.30;;;23.70;95.00;;;;;;6244944;27;83253;-66
2022/06/08 11:34:18;;;;;;;1.20;1.10;;;23.70;94.50;;;;;;6240082;27;84269;-67
2022/06/08 11:37:32;;;;;;;1.77;1.50;;;23.70;94.50;;;;;;6253872;27;83931;-66
2022/06/08 11:40:36;;;;;;;1.63;1.27;;;23.70;94.80;;;;;;6232787;27;83974;-67
2022/06/08 11:43:42;;;;;;;2.00;1.30;;;23.70;99.50;;;;;;6234486;27;83231;-67
2022/06/08 11:46:46;;;;;;;1.45;1.30;;;23.70;97.80;;;;;;6231840;27;82849;-67
2022/06/08 11:49:57;;;;;;;1.30;1.20;;;23.70;96.60;;;;;;6252902;27;83533;-66
2022/06/08 11:53:02;;;;;;;1.40;1.30;;;23.80;96.00;;;;;;6264953;27;83984;-67
2022/06/08 11:56:14;;;;;;;1.60;1.30;;;23.80;95.50;;;;;;6251186;27;83888;-66
2022/06/08 11:59:19;;;;;;;1.30;1.20;;;23.80;95.20;;;;;;6237779;27;84593;-66
2022/06/08 12:02:24;;;;;;;1.55;1.33;;;23.80;94.80;;;;;;6249541;27;83988;-66
2022/06/08 12:05:31;;;;;;;1.77;1.20;;;23.80;94.70;;;;;;6237046;27;84008;-66
2022/06/08 12:08:39;;;;;;;1.42;1.30;;;23.80;94.40;;;;;;6243665;28;83894;-66
2022/06/08 12:11:45;;;;;;;1.42;1.30;;;23.80;94.30;;;;;;6241484;27;84242;-67
2022/06/08 12:14:48;;;;;;;2.00;1.20;;;23.70;94.00;;;;;;6245121;27;83964;-66
2022/06/08 12:17:51;;;;;;;3.15;1.20;;;23.80;94.00;;;;;;6252094;27;84370;-66
2022/06/08 12:21:05;;;;;;;1.65;1.50;;;23.80;93.80;;;;;;6241278;27;82234;-67
2022/06/08 12:24:31;;;;;;;1.33;1.23;;;23.80;93.70;;;;;;6243104;28;84112;-67
2022/06/08 12:27:41;;;;;;;1.58;1.30;;;23.80;93.50;;;;;;6238991;28;82885;-67
2022/06/08 12:30:57;;;;;;;1.50;1.13;;;23.80;93.40;;;;;;6241126;28;83848;-67
2022/06/08 12:34:33;;;;;;;1.30;1.20;;;23.80;93.20;;;;;;6241445;27;85184;-67
2022/06/08 12:37:39;;;;;;;1.30;1.20;;;23.80;93.10;;;;;;6239654;28;82009;-64
2022/06/08 12:40:43;;;;;;;1.45;1.20;;;23.80;92.90;;;;;;6243340;27;82971;-65
2022/06/08 12:43:48;;;;;;;1.20;1.10;;;23.80;92.90;;;;;;6245362;28;83732;-64
2022/06/08 12:46:54;;;;;;;1.35;1.25;;;23.80;92.80;;;;;;6240019;27;84030;-65
2022/06/08 12:49:59;;;;;;;1.75;1.20;;;23.80;92.70;;;;;;6243787;27;84310;-65
2022/06/08 12:53:02;;;;;;;1.20;1.10;;;23.80;92.70;;;;;;6241635;27;83334;-65
2022/06/08 12:56:04;;;;;;;1.55;1.30;;;23.80;92.50;;;;;;6243793;27;84725;-64
2022/06/08 12:59:06;;;;;;;1.40;1.30;;;23.80;92.60;;;;;;6234137;27;84087;-65
2022/06/08 13:02:17;;;;;;;1.95;1.60;;;23.80;92.60;;;;;;6245796;28;84936;-65
2022/06/08 13:05:22;;;;;;;2.30;1.55;;;23.80;92.70;;;;;;6238579;27;83988;-65
2022/06/08 13:08:27;;;;;;;1.40;1.30;;;23.80;92.60;;;;;;6242942;28;84077;-65
2022/06/08 13:11:29;;;;;;;1.52;1.17;;;23.80;92.40;;;;;;6251451;28;84153;-65
2022/06/08 13:14:32;;;;;;;1.30;1.05;;;23.80;92.20;;;;;;6239196;27;83330;-65
2022/06/08 13:17:36;;;;;;;1.55;1.45;;;23.80;91.90;;;;;;6238709;27;84149;-65
2022/06/08 13:20:39;;;;;;;1.30;1.20;;;23.80;91.90;;;;;;6242296;27;82903;-66
2022/06/08 13:23:42;;;;;;;1.27;1.17;;;23.80;91.70;;;;;;6248399;27;83288;-65
2022/06/08 13:26:45;;;;;;;1.55;1.30;;;23.80;91.60;;;;;;6241544;27;82840;-65
2022/06/08 13:29:47;;;;;;;1.88;1.30;;;23.80;91.40;;;;;;6244932;28;84037;-65
2022/06/08 13:32:50;;;;;;;1.35;1.25;;;23.80;91.30;;;;;;6240304;27;84931;-65
2022/06/08 13:35:53;;;;;;;2.10;1.20;;;23.80;91.10;;;;;;6251427;27;84339;-65
2022/06/08 13:39:04;;;;;;;3.17;1.42;;;23.80;90.90;;;;;;6246160;27;84213;-65
2022/06/08 13:42:12;;;;;;;1.30;1.20;;;23.80;90.70;;;;;;6242010;27;84331;-65
2022/06/08 13:45:16;;;;;;;1.33;1.15;;;23.70;90.60;;;;;;6240704;28;84039;-65
2022/06/08 13:48:22;;;;;;;2.35;1.30;;;23.80;90.60;;;;;;6242976;27;84417;-65
2022/06/08 13:51:24;;;;;;;1.45;1.00;;;23.80;90.60;;;;;;6252905;27;83112;-65
2022/06/08 13:54:31;;;;;;;1.20;1.10;;;23.70;90.60;;;;;;6252287;27;83510;-65
2022/06/08 13:57:33;;;;;;;2.80;1.20;;;23.70;90.70;;;;;;6246212;27;82948;-65
2022/06/08 14:00:39;;;;;;;2.08;1.20;;;23.80;90.80;;;;;;6237430;27;84062;-66
2022/06/08 14:03:42;;;;;;;1.38;1.15;;;23.70;90.90;;;;;;6246333;28;85205;-66
2022/06/08 14:13:41;;;;;;;1.40;1.15;;;23.80;90.80;;;;;;6255014;27;83654;-64
2022/06/08 14:16:46;;;;;;;167.60;88.10;;;23.80;91.40;;;;;;6248369;27;84090;-64
2022/06/08 14:19:54;;;;;;;581.75;522.45;;;23.90;92.30;;;;;;6239946;27;84122;-65
2022/06/08 14:22:56;;;;;;;1035.10;783.10;;;24.00;91.70;;;;;;6242824;27;86173;-63
2022/06/08 14:25:58;;;;;;;676.67;594.75;;;24.10;92.60;;;;;;6242668;27;85272;-64
2022/06/08 14:29:01;;;;;;;247.23;210.80;;;24.30;94.70;;;;;;6247803;27;85381;-64
2022/06/08 14:32:05;;;;;;;216.23;172.70;;;24.50;90.60;;;;;;6247417;27;85313;-64
2022/06/08 14:35:16;;;;;;;190.27;149.50;;;24.70;90.30;;;;;;6245110;27;85178;-64
2022/06/08 14:38:20;;;;;;;171.27;134.57;;;24.90;89.10;;;;;;6243922;27;85751;-64
2022/06/08 14:41:37;;;;;;;163.38;126.65;;;25.10;87.10;;;;;;6231006;27;85240;-65
2022/06/08 14:44:39;;;;;;;153.88;116.53;;;25.20;86.00;;;;;;6236541;27;85380;-64
2022/06/08 14:47:42;;;;;;;132.85;106.13;;;25.20;85.50;;;;;;6230298;27;85334;-64
2022/06/08 14:50:47;;;;;;;124.43;97.85;;;25.20;85.10;;;;;;6244627;27;85445;-64
2022/06/08 14:53:50;;;;;;;114.35;88.80;;;25.10;84.90;;;;;;6256255;27;84559;-65
2022/06/08 14:57:02;;;;;;;103.90;80.18;;;25.10;85.30;;;;;;6257404;27;83549;-64
2022/06/08 15:00:15;;;;;;;99.10;76.70;;;25.00;84.90;;;;;;6236832;27;83956;-65
2022/06/08 15:03:21;;;;;;;91.85;71.75;;;25.00;85.00;;;;;;6234987;27;83412;-64
2022/06/08 15:06:24;;;;;;;82.72;61.28;;;25.00;85.10;;;;;;6239736;27;84168;-64
2022/06/08 15:09:27;;;;;;;73.00;57.80;;;24.90;85.00;;;;;;6259326;27;84741;-64
2022/06/08 15:12:31;;;;;;;68.85;52.33;;;24.90;85.10;;;;;;6243843;27;84111;-64
2022/06/08 15:15:34;;;;;;;64.35;48.63;;;24.80;85.20;;;;;;6244267;27;84077;-64
2022/06/08 15:18:37;;;;;;;67.18;46.58;;;24.70;85.50;;;;;;6235499;27;84316;-63
2022/06/08 15:21:41;;;;;;;63.35;43.47;;;24.70;85.90;;;;;;6241832;27;83409;-64
2022/06/08 15:24:44;;;;;;;57.45;40.08;;;24.60;86.20;;;;;;6248627;27;84095;-64
2022/06/08 15:27:50;;;;;;;62.75;39.03;;;24.60;87.30;;;;;;6242428;27;83962;-64
2022/06/08 15:30:53;;;;;;;51.38;34.03;;;24.50;88.60;;;;;;6243450;27;84369;-64
2022/06/08 15:33:55;;;;;;;47.30;31.65;;;24.50;88.90;;;;;;6250345;27;83999;-64
2022/06/08 15:37:01;;;;;;;41.78;29.52;;;24.50;88.80;;;;;;6241374;27;83882;-64
2022/06/08 15:40:04;;;;;;;41.13;27.85;;;24.40;88.60;;;;;;6255487;27;82923;-64
2022/06/08 15:43:07;;;;;;;32.97;24.58;;;24.50;88.60;;;;;;6254853;27;84108;-64
2022/06/08 15:46:11;;;;;;;33.63;24.15;;;24.40;88.30;;;;;;6238072;27;84266;-64
2022/06/08 15:49:17;;;;;;;28.50;22.33;;;24.40;88.10;;;;;;6243860;27;84229;-64
2022/06/08 15:52:26;;;;;;;26.88;20.33;;;24.40;87.90;;;;;;6231832;27;84620;-63
2022/06/08 15:55:31;;;;;;;26.55;18.88;;;24.30;87.60;;;;;;6229555;28;84005;-63
2022/06/08 15:58:34;;;;;;;23.58;17.15;;;24.40;87.40;;;;;;6240540;28;83702;-63
2022/06/08 16:01:37;;;;;;;18.10;15.13;;;24.30;87.30;;;;;;6242413;27;83863;-63
2022/06/08 16:04:39;;;;;;;18.35;14.00;;;24.30;87.10;;;;;;6240683;27;84163;-64
2022/06/08 16:07:43;;;;;;;20.58;14.15;;;24.30;87.10;;;;;;6234964;27;85038;-64
2022/06/08 16:10:45;;;;;;;17.27;12.82;;;24.30;86.90;;;;;;6235944;28;84024;-64
2022/06/08 16:13:47;;;;;;;14.55;11.07;;;24.30;86.70;;;;;;6237570;28;82904;-64
2022/06/08 16:16:50;;;;;;;15.23;11.25;;;24.30;86.70;;;;;;6242293;28;84551;-64
2022/06/08 16:19:52;;;;;;;14.63;10.65;;;24.30;86.70;;;;;;6233365;27;84075;-63
2022/06/08 16:22:56;;;;;;;12.82;9.93;;;24.30;91.40;;;;;;6231006;27;84338;-64
2022/06/08 16:25:59;;;;;;;11.48;9.07;;;24.30;91.20;;;;;;6238188;27;83989;-64
2022/06/08 16:29:02;;;;;;;13.88;8.98;;;24.40;90.70;;;;;;6244968;27;83275;-63
2022/06/08 16:32:05;;;;;;;9.88;8.40;;;24.40;90.00;;;;;;6233980;27;83070;-63
2022/06/08 16:35:08;;;;;;;9.43;7.07;;;24.40;89.30;;;;;;6241367;27;84184;-64
2022/06/08 16:38:12;;;;;;;8.50;6.53;;;24.40;88.10;;;;;;6233908;27;85096;-63
2022/06/08 16:41:16;;;;;;;10.43;6.93;;;24.40;87.20;;;;;;6250695;27;84974;-63
2022/06/08 16:44:20;;;;;;;9.50;6.97;;;24.40;87.10;;;;;;6261070;27;82950;-63
2022/06/08 16:47:22;;;;;;;8.13;6.38;;;24.40;86.70;;;;;;6243205;27;83106;-63
2022/06/08 16:50:24;;;;;;;8.20;5.75;;;24.30;86.60;;;;;;6235848;27;83977;-63
2022/06/08 16:53:29;;;;;;;7.07;5.68;;;24.30;86.10;;;;;;6239646;27;84217;-64
2022/06/08 16:59:51;;;;;;;5.22;4.72;;;24.30;85.60;;;;;;6252043;27;81570;-64
2022/06/08 17:02:53;;;;;;;6.50;4.53;;;24.30;85.20;;;;;;6241466;27;84040;-63
2022/06/08 17:05:56;;;;;;;6.80;4.95;;;24.20;85.20;;;;;;6247726;27;84024;-64
2022/06/08 17:08:59;;;;;;;5.82;5.05;;;24.30;85.00;;;;;;6240305;27;84963;-64
2022/06/08 17:12:01;;;;;;;6.13;4.30;;;24.20;85.20;;;;;;6239612;27;84026;-63
2022/06/08 17:15:04;;;;;;;5.85;4.32;;;24.20;84.90;;;;;;6257741;27;84058;-63
2022/06/08 17:18:07;;;;;;;5.80;4.43;;;24.20;85.00;;;;;;6246853;27;84320;-64
2022/06/08 17:21:09;;;;;;;5.80;4.43;;;24.20;85.10;;;;;;6248940;27;84047;-64
2022/06/08 17:24:13;;;;;;;4.88;4.28;;;24.20;85.20;;;;;;6255232;27;84043;-64
2022/06/08 17:27:16;;;;;;;4.05;3.33;;;24.20;85.00;;;;;;6245889;27;84110;-63
2022/06/08 17:30:18;;;;;;;3.80;3.50;;;24.10;85.00;;;;;;6265271;27;83380;-63
2022/06/08 17:33:20;;;;;;;5.50;3.90;;;24.10;85.40;;;;;;6237490;27;83019;-64
2022/06/08 17:36:22;;;;;;;4.47;3.70;;;24.10;85.50;;;;;;6234295;27;84078;-64
2022/06/08 17:39:26;;;;;;;4.07;3.30;;;24.10;85.50;;;;;;6246859;27;84220;-64
2022/06/08 17:42:28;;;;;;;4.22;3.40;;;24.10;85.70;;;;;;6252666;27;84069;-63
2022/06/08 17:45:31;;;;;;;3.78;3.28;;;24.10;85.90;;;;;;6234594;27;84022;-63
2022/06/08 17:48:33;;;;;;;5.40;3.58;;;24.10;86.10;;;;;;6234430;27;84068;-63
2022/06/08 17:51:35;;;;;;;3.92;3.13;;;24.10;86.20;;;;;;6245610;27;82714;-64
2022/06/08 17:54:39;;;;;;;3.50;2.90;;;24.10;86.60;;;;;;6247054;27;83347;-63
2022/06/08 17:57:41;;;;;;;3.13;2.83;;;24.10;87.10;;;;;;6246415;27;84109;-63
2022/06/08 18:00:44;;;;;;;4.88;3.20;;;24.10;87.10;;;;;;6246851;27;83327;-63
2022/06/08 18:03:46;;;;;;;3.20;2.90;;;24.00;87.20;;;;;;6249734;27;83287;-63
2022/06/08 18:06:49;;;;;;;4.30;3.13;;;24.10;87.60;;;;;;6243995;27;81969;-64
2022/06/08 18:09:53;;;;;;;3.95;2.92;;;24.00;87.80;;;;;;6233159;27;83847;-64
2022/06/08 18:12:55;;;;;;;4.70;3.00;;;24.10;88.10;;;;;;6233387;27;82752;-64
2022/06/08 18:15:57;;;;;;;3.65;2.90;;;24.00;88.50;;;;;;6241050;27;84075;-64
2022/06/08 18:18:59;;;;;;;3.50;2.88;;;24.00;88.60;;;;;;6236416;27;84426;-63
2022/06/08 18:22:01;;;;;;;3.45;3.13;;;24.00;88.80;;;;;;6240718;27;82907;-64
2022/06/08 18:25:05;;;;;;;3.30;3.00;;;24.00;88.90;;;;;;6243726;27;82903;-63
2022/06/08 18:28:11;;;;;;;3.03;2.72;;;24.10;89.30;;;;;;6242240;28;84111;-64
2022/06/08 18:31:14;;;;;;;3.78;2.75;;;24.10;89.40;;;;;;6242183;27;83288;-64
2022/06/08 18:34:16;;;;;;;3.40;3.00;;;24.00;89.50;;;;;;6242150;27;83933;-64
2022/06/08 18:37:19;;;;;;;3.08;2.60;;;24.00;89.90;;;;;;6241689;27;84080;-64
2022/06/08 18:40:23;;;;;;;3.25;2.95;;;24.00;90.00;;;;;;6238457;27;85222;-64
2022/06/08 18:43:31;;;;;;;3.15;2.80;;;24.00;90.10;;;;;;6246702;27;84427;-64
2022/06/08 18:46:33;;;;;;;2.67;2.47;;;24.00;90.20;;;;;;6257059;27;84082;-64
2022/06/08 18:49:35;;;;;;;3.25;2.95;;;24.00;90.30;;;;;;6252909;27;84353;-64
2022/06/08 18:52:38;;;;;;;3.25;2.67;;;24.00;90.40;;;;;;6245086;27;82799;-64
2022/06/08 18:55:42;;;;;;;3.03;2.72;;;24.00;90.50;;;;;;6233870;27;84018;-64
2022/06/08 18:58:44;;;;;;;3.53;2.35;;;24.00;90.60;;;;;;6254412;27;84441;-63
2022/06/08 19:01:46;;;;;;;2.65;2.30;;;24.00;90.70;;;;;;6243381;27;83379;-63
2022/06/08 19:04:49;;;;;;;2.70;2.50;;;24.00;90.80;;;;;;6258753;27;84335;-64
2022/06/08 19:07:52;;;;;;;2.63;2.42;;;24.00;90.80;;;;;;6244646;27;83981;-64
2022/06/08 19:10:55;;;;;;;2.20;2.00;;;24.00;90.90;;;;;;6237799;27;84990;-64
2022/06/08 19:13:57;;;;;;;3.97;2.80;;;24.00;91.00;;;;;;6239116;27;84087;-63
2022/06/08 19:17:00;;;;;;;2.97;2.58;;;24.00;91.10;;;;;;6245110;27;84139;-64
2022/06/08 19:23:23;;;;;;;3.17;2.22;;;24.00;91.30;;;;;;6232679;27;82525;-63
2022/06/08 19:26:31;;;;;;;3.13;2.83;;;24.00;91.30;;;;;;6234661;27;83980;-64
2022/06/08 19:29:33;;;;;;;3.33;2.28;;;23.90;91.30;;;;;;6244517;27;84022;-63
2022/06/08 19:32:35;;;;;;;2.60;2.40;;;24.00;91.30;;;;;;6247191;27;82524;-63
2022/06/08 19:35:38;;;;;;;2.65;2.45;;;24.00;91.40;;;;;;6255162;27;84075;-63
2022/06/08 19:38:40;;;;;;;2.25;2.05;;;24.00;91.40;;;;;;6248394;27;84573;-63
2022/06/08 19:41:48;;;;;;;2.10;1.90;;;23.90;91.60;;;;;;6246483;27;84770;-64